Home   Weather   Sweden   Norrköping   Past weeks
Flag for Sweden

Past Weather in Norrköping, Sweden — Yesterday and Last 2 Weeks

Currently: 39 °F. Overcast. (Weather station: Norrkoping Airport, Sweden). See more current weather

Past Weather in Norrköping — Graph

°F

Norrköping Temperature Yesterday

Maximum temperature yesterday: 46 °F (at 3:50 pm)
Minimum temperature yesterday: 36 °F (at 12:20 am)
Average temperature yesterday: 40 °F

High & Low Weather Summary for the Past Weeks

 TemperatureHumidityPressure
High66 °F (Mar 30, 3:20 pm)100% (Mar 31, 4:20 pm)30.15 "Hg (Mar 31, 4:20 pm)
Low23 °F (Apr 11, 6:20 am)27% (Apr 6, 3:20 pm)28.94 "Hg (Apr 5, 4:20 am)
Average42 °F67%29.75 "Hg
* Reported Mar 29 7:20 pm — Apr 13 7:50 pm, Norrköping. Weather by CustomWeather, © 2021

Note: Actual official high and low records may vary slightly from our data, if they occured in-between our weather recording intervals... More about our weather records

Norrköping Weather History for the Previous 24 Hours

Scroll right to see more
 ConditionsComfort  
Time TempWeatherWind HumidityBarometerVisibility
7:50 pm
Tue, Apr 13
39 °FOvercast.10 mph70%30.12 "HgN/A
7:20 pm41 °FOvercast.13 mph66%30.09 "HgN/A
6:50 pm41 °FPartly sunny.14 mph70%30.09 "HgN/A
6:20 pm43 °FScattered clouds.13 mph61%30.09 "HgN/A
5:50 pm43 °FPartly sunny.15 mph57%30.09 "HgN/A
5:20 pm46 °FScattered clouds.15 mph53%30.07 "HgN/A
4:50 pm46 °FPartly sunny.15 mph50%30.07 "HgN/A
4:20 pm46 °FPassing clouds.16 mph46%30.07 "HgN/A
3:50 pm45 °FScattered clouds.16 mph57%30.07 "HgN/A
3:20 pm45 °FBroken clouds.16 mph57%30.07 "HgN/A
2:50 pm45 °FScattered clouds.16 mph57%30.07 "HgN/A
2:20 pm43 °FScattered showers. Scattered clouds.9 mph76%30.07 "HgN/A
1:50 pm41 °FScattered showers. Scattered clouds.7 mph81%30.07 "HgN/A
1:20 pm41 °FSprinkles. Broken clouds.13 mph70%30.07 "HgN/A
12:50 pm43 °FPartly sunny.12 mph61%30.04 "HgN/A
12:20 pm43 °FSprinkles. Partly sunny.12 mph61%30.04 "HgN/A
11:50 am43 °FPartly sunny.9 mph61%30.04 "HgN/A
11:20 am43 °FPartly sunny.8 mph61%30.04 "HgN/A
10:50 am41 °FPartly sunny.12 mph66%30.04 "HgN/A
10:20 am41 °FScattered clouds.10 mph66%30.04 "HgN/A
9:50 am41 °FScattered clouds.9 mph70%30.04 "HgN/A
9:20 am39 °FScattered clouds.10 mph75%30.04 "HgN/A
8:50 am37 °FScattered clouds.12 mph75%30.04 "HgN/A
8:20 am37 °FPassing clouds.8 mph75%30.04 "HgN/A
7:50 am34 °FPassing clouds.6 mph87%30.04 "HgN/A
7:20 am34 °FScattered clouds.6 mph87%30.04 "HgN/A
6:50 am32 °FChilly.6 mph87%30.04 "HgN/A
6:20 am32 °FChilly.7 mph87%30.04 "HgN/A
5:50 am32 °FChilly.5 mph87%30.04 "HgN/A
5:20 am32 °FChilly.6 mph87%30.04 "HgN/A
4:50 am34 °FChilly.7 mph81%30.04 "HgN/A
4:20 am34 °FChilly.3 mph81%30.04 "HgN/A
3:50 am32 °FChilly.5 mph87%30.04 "HgN/A
3:20 am34 °FChilly.3 mph81%30.04 "HgN/A
2:50 am34 °FChilly.5 mph81%30.04 "HgN/A
2:20 am34 °FChilly.6 mph81%30.04 "HgN/A
1:50 am36 °FChilly.7 mph75%30.04 "HgN/A
1:20 am36 °FChilly.7 mph75%30.04 "HgN/A
12:50 am36 °FChilly.7 mph81%30.04 "HgN/A
12:20 am37 °FPassing clouds.8 mph75%30.04 "HgN/A
11:50 pm
Mon, Apr 12
37 °FChilly.7 mph75%30.04 "HgN/A
11:20 pm37 °FChilly.7 mph75%30.04 "HgN/A
10:50 pm39 °FPassing clouds.10 mph70%30.04 "HgN/A
10:20 pm39 °FChilly.9 mph70%30.04 "HgN/A
9:50 pm39 °FPassing clouds.9 mph70%30.04 "HgN/A
9:20 pm41 °FPassing clouds.12 mph66%30.04 "HgN/A
Weather by CustomWeather, © 2021

See weather overview